Time;durP1;ratioP1;P1;durP2;ratioP2;P2;SDS_P1;SDS_P2;PMS_P1;PMS_P2;Temp;Humidity;BMP_temperature;BMP_pressure;BME280_temperature;BME280_humidity;BME280_pressure;Samples;Min_cycle;Max_cycle;Signal;HPM_P1;HPM_P2
2022/03/02 00:00:09;;;;;;;2.63;1.02;;;;;;;;;;7387736;19;20007;-71
2022/03/02 00:02:35;;;;;;;2.13;1.10;;;;;;;;;;7386812;19;20153;-74
2022/03/02 00:05:01;;;;;;;3.53;1.55;;;;;;;;;;7387900;19;20005;-71
2022/03/02 00:07:26;;;;;;;4.55;1.52;;;;;;;;;;7388955;19;20011;-71
2022/03/02 00:09:52;;;;;;;3.20;1.50;;;;;;;;;;7387616;19;20011;-74
2022/03/02 00:12:17;;;;;;;5.05;2.38;;;;;;;;;;7386652;19;20022;-73
2022/03/02 00:14:42;;;;;;;6.82;2.50;;;;;;;;;;7388973;19;20438;-72
2022/03/02 00:17:08;;;;;;;5.68;2.08;;;;;;;;;;7388160;19;20425;-72
2022/03/02 00:19:34;;;;;;;3.25;1.63;;;;;;;;;;7386801;19;20380;-73
2022/03/02 00:21:59;;;;;;;4.43;1.65;;;;;;;;;;7386172;19;20030;-73
2022/03/02 00:24:25;;;;;;;3.67;1.60;;;;;;;;;;7387609;19;19986;-73
2022/03/02 00:26:50;;;;;;;5.32;1.65;;;;;;;;;;7388030;19;21585;-73
2022/03/02 00:29:16;;;;;;;4.57;1.70;;;;;;;;;;7388169;19;20010;-73
2022/03/02 00:31:41;;;;;;;3.42;1.73;;;;;;;;;;7386186;19;20005;-73
2022/03/02 00:34:06;;;;;;;4.05;1.65;;;;;;;;;;7387062;19;20039;-72
2022/03/02 00:36:31;;;;;;;1.70;1.17;;;;;;;;;;7383934;19;20015;-71
2022/03/02 00:38:57;;;;;;;3.13;1.40;;;;;;;;;;7385765;19;20453;-73
2022/03/02 00:41:22;;;;;;;5.72;1.60;;;;;;;;;;7387233;19;20027;-73
2022/03/02 00:43:47;;;;;;;3.75;1.45;;;;;;;;;;7385901;19;20007;-73
2022/03/02 00:46:13;;;;;;;2.08;1.25;;;;;;;;;;7385555;19;20086;-73
2022/03/02 00:48:39;;;;;;;4.38;1.60;;;;;;;;;;7386070;19;20092;-73
2022/03/02 00:51:05;;;;;;;5.85;1.73;;;;;;;;;;7386616;19;20011;-73
2022/03/02 00:53:31;;;;;;;3.30;1.50;;;;;;;;;;7385922;19;20013;-72
2022/03/02 00:55:57;;;;;;;2.95;1.50;;;;;;;;;;7386283;19;20022;-73
2022/03/02 00:58:22;;;;;;;5.40;1.75;;;;;;;;;;7387176;19;20020;-72
2022/03/02 01:00:47;;;;;;;3.03;1.60;;;;;;;;;;7384577;19;20015;-73
2022/03/02 01:03:12;;;;;;;3.35;1.52;;;;;;;;;;7389121;19;20010;-73
2022/03/02 01:05:39;;;;;;;2.97;1.30;;;;;;;;;;7385833;19;20010;-72
2022/03/02 01:08:05;;;;;;;4.28;1.85;;;;;;;;;;7387256;19;20322;-72
2022/03/02 01:10:31;;;;;;;2.28;1.40;;;;;;;;;;7383989;19;20021;-72
2022/03/02 01:12:56;;;;;;;5.40;1.55;;;;;;;;;;7387134;19;20010;-73
2022/03/02 01:15:22;;;;;;;3.97;1.50;;;;;;;;;;7386796;19;20019;-72
2022/03/02 01:17:47;;;;;;;3.17;1.50;;;;;;;;;;7385012;19;20023;-73
2022/03/02 01:20:13;;;;;;;3.17;1.30;;;;;;;;;;7385909;19;20045;-73
2022/03/02 01:22:39;;;;;;;4.93;1.45;;;;;;;;;;7384426;19;20492;-73
2022/03/02 01:25:07;;;;;;;5.43;1.50;;;;;;;;;;7384644;19;20049;-73
2022/03/02 01:27:32;;;;;;;4.05;1.60;;;;;;;;;;7385231;19;20010;-71
2022/03/02 01:29:57;;;;;;;5.05;1.50;;;;;;;;;;7387166;19;20432;-72
2022/03/02 01:32:23;;;;;;;3.92;1.60;;;;;;;;;;7385426;19;20010;-72
2022/03/02 01:34:48;;;;;;;3.38;1.65;;;;;;;;;;7385411;19;20039;-72
2022/03/02 01:37:14;;;;;;;2.75;1.70;;;;;;;;;;7385301;19;20002;-72
2022/03/02 01:39:40;;;;;;;5.05;1.48;;;;;;;;;;7385306;19;20010;-71
2022/03/02 01:42:06;;;;;;;4.93;1.60;;;;;;;;;;7385033;19;20452;-72
2022/03/02 01:44:32;;;;;;;6.22;1.92;;;;;;;;;;7383035;19;20835;-71
2022/03/02 01:46:58;;;;;;;5.68;1.58;;;;;;;;;;7385852;19;20010;-73
2022/03/02 01:49:24;;;;;;;4.28;1.13;;;;;;;;;;7383659;19;20043;-72
2022/03/02 01:51:49;;;;;;;5.75;1.98;;;;;;;;;;7383230;19;20003;-72
2022/03/02 01:54:14;;;;;;;4.22;1.27;;;;;;;;;;7386354;19;20010;-73
2022/03/02 01:56:40;;;;;;;6.88;1.85;;;;;;;;;;7381587;19;20010;-73
2022/03/02 01:59:05;;;;;;;4.13;1.63;;;;;;;;;;7384375;19;20335;-72
2022/03/02 02:01:31;;;;;;;4.95;1.70;;;;;;;;;;7382448;19;20427;-73
2022/03/02 02:03:57;;;;;;;2.78;1.60;;;;;;;;;;7384752;19;20014;-73
2022/03/02 02:06:23;;;;;;;4.55;1.40;;;;;;;;;;7381064;19;20355;-73
2022/03/02 02:08:48;;;;;;;4.18;1.70;;;;;;;;;;7385129;19;20010;-72
2022/03/02 02:11:14;;;;;;;4.47;1.65;;;;;;;;;;7382557;19;20019;-72
2022/03/02 02:13:40;;;;;;;2.05;1.30;;;;;;;;;;7389688;19;20014;-71
2022/03/02 02:16:07;;;;;;;3.85;1.38;;;;;;;;;;7389959;19;20018;-73
2022/03/02 02:18:33;;;;;;;2.88;1.40;;;;;;;;;;7388822;19;20014;-73
2022/03/02 02:21:03;;;;;;;2.83;1.30;;;;;;;;;;7390585;19;20007;-73
2022/03/02 02:23:29;;;;;;;2.80;1.60;;;;;;;;;;7391749;19;20454;-72
2022/03/02 02:25:54;;;;;;;2.67;1.27;;;;;;;;;;7390500;19;20011;-72
2022/03/02 02:28:23;;;;;;;4.60;1.70;;;;;;;;;;7391790;19;20027;-72
2022/03/02 02:30:50;;;;;;;4.97;1.67;;;;;;;;;;7392286;19;20020;-73
2022/03/02 02:33:15;;;;;;;2.60;1.40;;;;;;;;;;7391529;19;20011;-73
2022/03/02 02:35:40;;;;;;;2.13;1.35;;;;;;;;;;7387791;19;20120;-72
2022/03/02 02:38:07;;;;;;;4.78;1.40;;;;;;;;;;7391394;19;20007;-73
2022/03/02 02:40:33;;;;;;;3.25;1.50;;;;;;;;;;7389144;19;20007;-73
2022/03/02 02:42:58;;;;;;;3.67;1.23;;;;;;;;;;7391903;19;20002;-72
2022/03/02 02:45:24;;;;;;;3.60;1.60;;;;;;;;;;7387470;19;20075;-71
2022/03/02 02:47:54;;;;;;;2.35;1.25;;;;;;;;;;7389020;19;20327;-73
2022/03/02 02:50:24;;;;;;;2.35;1.15;;;;;;;;;;7388057;19;20014;-72
2022/03/02 02:52:51;;;;;;;4.72;1.25;;;;;;;;;;7389402;19;20011;-72
2022/03/02 02:55:17;;;;;;;3.00;1.23;;;;;;;;;;7389409;19;20014;-73
2022/03/02 02:57:43;;;;;;;2.95;1.30;;;;;;;;;;7389540;19;21006;-72
2022/03/02 03:00:12;;;;;;;3.88;1.60;;;;;;;;;;7388590;19;20014;-72
2022/03/02 03:02:38;;;;;;;3.40;1.50;;;;;;;;;;7389615;19;20036;-72
2022/03/02 03:05:04;;;;;;;3.92;1.40;;;;;;;;;;7387407;19;20118;-73
2022/03/02 03:07:30;;;;;;;4.10;1.45;;;;;;;;;;7389715;19;20027;-71
2022/03/02 03:09:55;;;;;;;3.80;1.52;;;;;;;;;;7389159;19;20085;-72
2022/03/02 03:12:20;;;;;;;3.58;1.67;;;;;;;;;;7390177;19;20007;-72
2022/03/02 03:14:45;;;;;;;3.17;1.65;;;;;;;;;;7389011;19;20436;-72
2022/03/02 03:17:11;;;;;;;3.63;1.50;;;;;;;;;;7390833;19;20677;-72
2022/03/02 03:19:36;;;;;;;5.65;1.58;;;;;;;;;;7389094;19;20002;-72
2022/03/02 03:22:05;;;;;;;2.88;1.42;;;;;;;;;;7390068;19;20010;-73
2022/03/02 03:24:31;;;;;;;4.55;1.40;;;;;;;;;;7386626;19;20007;-73
2022/03/02 03:26:56;;;;;;;3.45;1.30;;;;;;;;;;7389315;19;20092;-72
2022/03/02 03:29:21;;;;;;;4.03;1.58;;;;;;;;;;7390278;19;20003;-72
2022/03/02 03:31:47;;;;;;;3.97;1.45;;;;;;;;;;7388822;19;20003;-72
2022/03/02 03:34:12;;;;;;;3.03;1.42;;;;;;;;;;7390234;19;20512;-73
2022/03/02 03:36:38;;;;;;;5.10;1.52;;;;;;;;;;7387095;19;19999;-73
2022/03/02 03:39:03;;;;;;;2.38;1.50;;;;;;;;;;7386882;19;20014;-73
2022/03/02 03:41:28;;;;;;;2.35;1.27;;;;;;;;;;7390370;19;20013;-74
2022/03/02 03:43:54;;;;;;;3.38;1.60;;;;;;;;;;7389017;19;20723;-73
2022/03/02 03:46:19;;;;;;;5.28;1.60;;;;;;;;;;7386173;19;20013;-72
2022/03/02 03:48:44;;;;;;;2.35;1.30;;;;;;;;;;7388443;19;20010;-73
2022/03/02 03:51:10;;;;;;;3.47;1.45;;;;;;;;;;7390126;19;20011;-74
2022/03/02 03:53:35;;;;;;;2.80;1.52;;;;;;;;;;7390224;19;20010;-71
2022/03/02 03:56:00;;;;;;;22.10;5.47;;;;;;;;;;7385719;19;20018;-72
2022/03/02 03:58:26;;;;;;;19.98;5.38;;;;;;;;;;7389413;19;20413;-73
2022/03/02 04:00:51;;;;;;;11.50;3.60;;;;;;;;;;7388137;19;20043;-73
2022/03/02 04:03:16;;;;;;;5.60;2.53;;;;;;;;;;7389588;19;20014;-72
2022/03/02 04:05:41;;;;;;;3.08;1.70;;;;;;;;;;7386030;19;20104;-71
2022/03/02 04:08:08;;;;;;;3.90;1.92;;;;;;;;;;7384654;19;20026;-73
2022/03/02 04:10:34;;;;;;;4.97;1.42;;;;;;;;;;7387134;19;20003;-71
2022/03/02 04:12:59;;;;;;;3.80;1.63;;;;;;;;;;7382612;19;20010;-74
2022/03/02 04:15:25;;;;;;;5.47;1.75;;;;;;;;;;7383790;19;20362;-72
2022/03/02 04:17:50;;;;;;;6.90;2.05;;;;;;;;;;7386014;19;20357;-73
2022/03/02 04:20:16;;;;;;;4.30;1.80;;;;;;;;;;7384090;19;20134;-73
2022/03/02 04:22:41;;;;;;;3.75;1.58;;;;;;;;;;7385178;19;20002;-73
2022/03/02 04:25:07;;;;;;;7.75;1.98;;;;;;;;;;7383071;19;20010;-73
2022/03/02 04:27:33;;;;;;;2.35;1.60;;;;;;;;;;7382427;19;20033;-72
2022/03/02 04:29:58;;;;;;;4.18;1.48;;;;;;;;;;7381381;19;20469;-73
2022/03/02 04:32:24;;;;;;;2.90;1.52;;;;;;;;;;7359367;19;20503;-72
2022/03/02 04:34:49;;;;;;;2.70;1.67;;;;;;;;;;7383581;19;20015;-73
2022/03/02 04:37:14;;;;;;;4.30;1.73;;;;;;;;;;7384177;19;20031;-73
2022/03/02 04:39:40;;;;;;;4.20;1.60;;;;;;;;;;7383592;19;20096;-73
2022/03/02 04:42:06;;;;;;;6.75;1.70;;;;;;;;;;7382944;19;20480;-73
2022/03/02 04:44:31;;;;;;;6.55;1.98;;;;;;;;;;7383511;19;20014;-73
2022/03/02 04:46:57;;;;;;;3.30;1.75;;;;;;;;;;7384174;19;20019;-73
2022/03/02 04:49:22;;;;;;;4.13;1.83;;;;;;;;;;7384705;19;20002;-73
2022/03/02 04:51:48;;;;;;;8.57;1.85;;;;;;;;;;7380657;19;20022;-72
2022/03/02 04:57:02;;;;;;;3.25;1.42;;;;;;;;;;7384943;19;20017;-73
2022/03/02 04:59:27;;;;;;;2.97;1.52;;;;;;;;;;7381164;19;20590;-73
2022/03/02 05:01:53;;;;;;;3.53;1.45;;;;;;;;;;7370464;19;20471;-73
2022/03/02 05:04:18;;;;;;;4.13;1.50;;;;;;;;;;7376962;19;20473;-73
2022/03/02 05:06:43;;;;;;;3.03;1.40;;;;;;;;;;7382425;19;20114;-74
2022/03/02 05:09:09;;;;;;;5.30;1.30;;;;;;;;;;7383264;19;20338;-74
2022/03/02 05:11:34;;;;;;;2.92;1.25;;;;;;;;;;7384608;19;20003;-72
2022/03/02 05:13:59;;;;;;;3.70;1.50;;;;;;;;;;7384753;19;20003;-73
2022/03/02 05:16:24;;;;;;;4.00;1.42;;;;;;;;;;7384881;19;20508;-73
2022/03/02 05:18:50;;;;;;;1.77;1.20;;;;;;;;;;7382305;19;20007;-73
2022/03/02 05:21:15;;;;;;;5.22;1.60;;;;;;;;;;7384203;19;20015;-73
2022/03/02 05:23:40;;;;;;;2.95;1.40;;;;;;;;;;7381997;19;20027;-72
2022/03/02 05:26:06;;;;;;;5.80;1.45;;;;;;;;;;7382465;19;20017;-73
2022/03/02 05:28:32;;;;;;;2.90;1.40;;;;;;;;;;7385996;19;20046;-72
2022/03/02 05:30:57;;;;;;;3.67;1.58;;;;;;;;;;7384433;19;20030;-72
2022/03/02 05:33:22;;;;;;;3.90;1.65;;;;;;;;;;7385651;19;20460;-73
2022/03/02 05:35:48;;;;;;;5.47;1.95;;;;;;;;;;7381835;19;20018;-73
2022/03/02 05:38:13;;;;;;;4.40;1.63;;;;;;;;;;7383313;19;20048;-73
2022/03/02 05:40:38;;;;;;;4.93;1.92;;;;;;;;;;7383401;19;20011;-72
2022/03/02 05:43:04;;;;;;;5.97;2.10;;;;;;;;;;7382119;19;20002;-73
2022/03/02 05:45:29;;;;;;;10.30;2.60;;;;;;;;;;7374502;19;20007;-73
2022/03/02 05:47:54;;;;;;;7.90;2.78;;;;;;;;;;7374940;19;20015;-72
2022/03/02 05:50:20;;;;;;;7.35;2.38;;;;;;;;;;7375041;19;20010;-73
2022/03/02 05:52:45;;;;;;;5.00;2.50;;;;;;;;;;7377817;19;20018;-73
2022/03/02 05:55:10;;;;;;;4.60;1.85;;;;;;;;;;7378033;19;20010;-73
2022/03/02 05:57:36;;;;;;;3.38;1.83;;;;;;;;;;7378112;19;20007;-74
2022/03/02 06:00:04;;;;;;;3.45;1.50;;;;;;;;;;7381843;19;20010;-72
2022/03/02 06:02:30;;;;;;;3.40;1.52;;;;;;;;;;7386431;19;20107;-73
2022/03/02 06:04:56;;;;;;;4.95;2.00;;;;;;;;;;7383284;19;20018;-72
2022/03/02 06:07:21;;;;;;;6.60;1.80;;;;;;;;;;7382925;19;21064;-72
2022/03/02 06:09:49;;;;;;;5.30;1.92;;;;;;;;;;7380619;19;20460;-71
2022/03/02 06:12:15;;;;;;;3.25;1.77;;;;;;;;;;7372974;19;20030;-71
2022/03/02 06:14:41;;;;;;;4.35;1.83;;;;;;;;;;7365795;19;20030;-71
2022/03/02 06:17:09;;;;;;;2.45;1.60;;;;;;;;;;7378835;19;20009;-72
2022/03/02 06:19:34;;;;;;;3.55;1.60;;;;;;;;;;7382240;19;20019;-72
2022/03/02 06:22:02;;;;;;;3.08;1.48;;;;;;;;;;7382171;19;20007;-72
2022/03/02 06:24:28;;;;;;;3.38;1.77;;;;;;;;;;7380723;19;20014;-72
2022/03/02 06:26:53;;;;;;;8.23;1.88;;;;;;;;;;7379444;19;20007;-72
2022/03/02 06:29:18;;;;;;;10.30;2.55;;;;;;;;;;7381180;19;20024;-73
2022/03/02 06:31:44;;;;;;;7.90;2.47;;;;;;;;;;7379277;19;20391;-73
2022/03/02 06:34:10;;;;;;;5.68;2.17;;;;;;;;;;7379734;19;20081;-73
2022/03/02 06:36:35;;;;;;;5.22;2.20;;;;;;;;;;7374611;19;20002;-72
2022/03/02 06:39:00;;;;;;;4.05;1.80;;;;;;;;;;7377828;19;20011;-72
2022/03/02 06:41:34;;;;;;;6.00;2.08;;;;;;;;;;7379535;19;20010;-74
2022/03/02 06:44:22;;;;;;;3.58;1.63;;;;;;;;;;7379845;19;20026;-72
2022/03/02 06:47:10;;;;;;;2.95;1.60;;;;;;;;;;7379486;19;20042;-72
2022/03/02 06:49:44;;;;;;;3.63;1.85;;;;;;;;;;7379245;19;20793;-72
2022/03/02 06:52:12;;;;;;;4.35;1.40;;;;;;;;;;7380640;19;20837;-72
2022/03/02 06:54:42;;;;;;;4.65;1.77;;;;;;;;;;7380632;19;19999;-72
2022/03/02 06:57:10;;;;;;;4.40;1.45;;;;;;;;;;7380561;19;20010;-71
2022/03/02 06:59:38;;;;;;;3.75;1.77;;;;;;;;;;7382862;19;20324;-74
2022/03/02 07:02:04;;;;;;;4.05;1.90;;;;;;;;;;7387103;19;20077;-70
2022/03/02 07:04:38;;;;;;;3.33;1.70;;;;;;;;;;7387648;19;20010;-73
2022/03/02 07:07:03;;;;;;;2.50;1.50;;;;;;;;;;7389456;19;20099;-73
2022/03/02 07:09:30;;;;;;;7.10;1.80;;;;;;;;;;7384982;19;20499;-74
2022/03/02 07:11:57;;;;;;;3.13;1.48;;;;;;;;;;7387638;19;20010;-73
2022/03/02 07:14:23;;;;;;;4.13;1.98;;;;;;;;;;7387650;19;20007;-74
2022/03/02 07:16:48;;;;;;;4.47;1.40;;;;;;;;;;7388386;19;20017;-72
2022/03/02 07:19:13;;;;;;;2.88;1.50;;;;;;;;;;7386897;19;20002;-73
2022/03/02 07:21:43;;;;;;;2.90;1.75;;;;;;;;;;7389942;19;20464;-75
2022/03/02 07:24:16;;;;;;;1.98;1.42;;;;;;;;;;7388886;19;20042;-76
2022/03/02 07:26:44;;;;;;;3.15;1.48;;;;;;;;;;7382284;19;19998;-72
2022/03/02 07:29:12;;;;;;;3.30;1.55;;;;;;;;;;7388402;19;20118;-73
2022/03/02 07:31:37;;;;;;;2.38;1.40;;;;;;;;;;7388820;19;20010;-73
2022/03/02 07:34:03;;;;;;;3.47;1.63;;;;;;;;;;7383160;19;20013;-72
2022/03/02 07:36:31;;;;;;;3.20;2.00;;;;;;;;;;7388605;19;20641;-73
2022/03/02 07:38:56;;;;;;;6.40;1.88;;;;;;;;;;7389656;19;20011;-73
2022/03/02 07:41:22;;;;;;;2.65;1.40;;;;;;;;;;7389185;19;20006;-76
2022/03/02 07:43:48;;;;;;;2.88;1.60;;;;;;;;;;7388837;19;20006;-72
2022/03/02 07:46:14;;;;;;;5.18;1.77;;;;;;;;;;7388626;19;20015;-74
2022/03/02 07:48:39;;;;;;;2.63;1.58;;;;;;;;;;7388009;19;20437;-74
2022/03/02 07:51:07;;;;;;;4.10;1.85;;;;;;;;;;7388335;19;20192;-72
2022/03/02 07:53:39;;;;;;;5.90;1.88;;;;;;;;;;7386784;19;20021;-74
2022/03/02 07:56:04;;;;;;;4.00;1.83;;;;;;;;;;7382275;19;20021;-72
2022/03/02 07:58:30;;;;;;;3.25;1.60;;;;;;;;;;7387975;19;20353;-75
2022/03/02 08:00:58;;;;;;;2.90;1.67;;;;;;;;;;7388243;19;20006;-72
2022/03/02 08:03:27;;;;;;;3.55;1.98;;;;;;;;;;7389356;19;20041;-72
2022/03/02 08:05:59;;;;;;;3.45;1.90;;;;;;;;;;7385944;19;20010;-74
2022/03/02 08:08:24;;;;;;;3.38;2.03;;;;;;;;;;7390456;19;20043;-74
2022/03/02 08:10:52;;;;;;;4.35;1.90;;;;;;;;;;7390897;19;20444;-72
2022/03/02 08:13:18;;;;;;;4.22;2.20;;;;;;;;;;7391425;19;20003;-71
2022/03/02 08:15:43;;;;;;;4.53;2.25;;;;;;;;;;7387961;19;20026;-72
2022/03/02 08:18:10;;;;;;;4.63;2.00;;;;;;;;;;7389842;19;20010;-71
2022/03/02 08:20:36;;;;;;;3.75;2.22;;;;;;;;;;7389735;19;20024;-73
2022/03/02 08:23:05;;;;;;;4.13;2.60;;;;;;;;;;7387596;19;20038;-75
2022/03/02 08:25:32;;;;;;;3.60;2.20;;;;;;;;;;7384860;19;20014;-72
2022/03/02 08:27:59;;;;;;;4.97;2.70;;;;;;;;;;7382855;19;20015;-74
2022/03/02 08:30:30;;;;;;;5.18;2.35;;;;;;;;;;7381958;19;20006;-71
2022/03/02 08:32:57;;;;;;;3.38;2.17;;;;;;;;;;7387106;19;20118;-74
2022/03/02 08:35:22;;;;;;;4.50;2.35;;;;;;;;;;7385359;19;20026;-71
2022/03/02 08:37:48;;;;;;;5.25;2.45;;;;;;;;;;7383111;19;20018;-73
2022/03/02 08:40:13;;;;;;;3.72;2.60;;;;;;;;;;7386880;19;20009;-76
2022/03/02 08:42:40;;;;;;;4.28;2.65;;;;;;;;;;7389347;19;20535;-72
2022/03/02 08:45:06;;;;;;;4.20;2.55;;;;;;;;;;7387284;19;20147;-72
2022/03/02 08:47:31;;;;;;;6.40;2.78;;;;;;;;;;7371900;19;20433;-72
2022/03/02 08:49:57;;;;;;;5.35;3.00;;;;;;;;;;7384976;19;20110;-72
2022/03/02 08:52:28;;;;;;;5.80;2.92;;;;;;;;;;7382688;19;20006;-72
2022/03/02 08:54:54;;;;;;;7.03;3.78;;;;;;;;;;7381456;19;20018;-71
2022/03/02 08:57:20;;;;;;;8.98;3.35;;;;;;;;;;7378567;19;20006;-72
2022/03/02 08:59:47;;;;;;;4.72;3.28;;;;;;;;;;7382660;19;20014;-71
2022/03/02 09:02:19;;;;;;;4.32;3.17;;;;;;;;;;7381035;19;20010;-74
2022/03/02 09:04:47;;;;;;;6.47;3.58;;;;;;;;;;7382524;19;20024;-75
2022/03/02 09:07:12;;;;;;;7.65;3.45;;;;;;;;;;7383161;19;20018;-71
2022/03/02 09:09:38;;;;;;;4.85;2.60;;;;;;;;;;7379997;19;20127;-74
2022/03/02 09:12:05;;;;;;;6.30;3.70;;;;;;;;;;7383675;19;20017;-72
2022/03/02 09:14:30;;;;;;;5.38;3.20;;;;;;;;;;7382906;19;20010;-72
2022/03/02 09:16:55;;;;;;;6.55;3.65;;;;;;;;;;7382197;19;20018;-72
2022/03/02 09:19:21;;;;;;;8.98;3.60;;;;;;;;;;7379327;19;20010;-74
2022/03/02 09:21:47;;;;;;;8.70;3.30;;;;;;;;;;7380461;19;20014;-72
2022/03/02 09:24:13;;;;;;;9.93;4.22;;;;;;;;;;7382652;19;20015;-71
2022/03/02 09:26:40;;;;;;;10.32;3.80;;;;;;;;;;7381390;19;20027;-72
2022/03/02 09:29:07;;;;;;;6.57;3.25;;;;;;;;;;7382745;19;20034;-72
2022/03/02 09:31:35;;;;;;;6.75;3.20;;;;;;;;;;7382512;19;20011;-72
2022/03/02 09:34:05;;;;;;;5.97;3.45;;;;;;;;;;7381405;19;20433;-72
2022/03/02 09:36:34;;;;;;;5.80;3.35;;;;;;;;;;7381048;19;20456;-75
2022/03/02 09:39:00;;;;;;;6.80;3.80;;;;;;;;;;7383219;19;20037;-72
2022/03/02 09:41:39;;;;;;;9.07;4.10;;;;;;;;;;7384309;19;20011;-72
2022/03/02 09:44:06;;;;;;;6.25;3.42;;;;;;;;;;7384185;19;20310;-71
2022/03/02 09:46:37;;;;;;;9.45;4.57;;;;;;;;;;7381677;19;20092;-69
2022/03/02 09:49:05;;;;;;;12.10;5.10;;;;;;;;;;7382871;19;20103;-74
2022/03/02 09:51:32;;;;;;;7.07;3.58;;;;;;;;;;7379279;19;20075;-74
2022/03/02 09:54:00;;;;;;;5.50;3.20;;;;;;;;;;7383377;19;20211;-72
2022/03/02 09:56:29;;;;;;;6.22;3.50;;;;;;;;;;7381592;19;20018;-73
2022/03/02 09:58:55;;;;;;;6.22;3.40;;;;;;;;;;7382427;19;20373;-73
2022/03/02 10:01:23;;;;;;;5.35;3.47;;;;;;;;;;7380928;19;20464;-75
2022/03/02 10:03:50;;;;;;;5.93;3.33;;;;;;;;;;7380859;19;20027;-76
2022/03/02 10:06:20;;;;;;;6.38;3.63;;;;;;;;;;7379458;19;20465;-73
2022/03/02 10:08:51;;;;;;;4.90;2.80;;;;;;;;;;7377905;19;20014;-74
2022/03/02 10:11:23;;;;;;;5.53;3.88;;;;;;;;;;7382311;19;20007;-75
2022/03/02 10:13:50;;;;;;;6.05;3.15;;;;;;;;;;7381179;19;20066;-76
2022/03/02 10:16:25;;;;;;;8.52;3.60;;;;;;;;;;7379952;19;20477;-72
2022/03/02 10:18:57;;;;;;;;;;;;;;;;;;7382379;19;20006;-72
2022/03/02 10:21:29;;;;;;;5.22;3.38;;;;;;;;;;7382024;19;19929;-71
2022/03/02 10:23:59;;;;;;;6.15;3.22;;;;;;;;;;7379913;19;20018;-72
2022/03/02 10:26:31;;;;;;;6.05;3.15;;;;;;;;;;7379663;19;20002;-74
2022/03/02 10:29:19;;;;;;;4.50;3.17;;;;;;;;;;7368928;19;20034;-71
2022/03/02 10:32:08;;;;;;;4.82;3.10;;;;;;;;;;7377456;19;20018;-74
2022/03/02 10:34:34;;;;;;;5.50;3.28;;;;;;;;;;7376230;19;20014;-72
2022/03/02 10:37:23;;;;;;;6.40;3.63;;;;;;;;;;7384464;19;20122;-75
2022/03/02 10:39:50;;;;;;;5.85;3.33;;;;;;;;;;7381838;19;20026;-72
2022/03/02 10:42:30;;;;;;;12.95;4.63;;;;;;;;;;7382166;19;20010;-74
2022/03/02 10:45:04;;;;;;;8.65;3.63;;;;;;;;;;7385799;19;20017;-70
2022/03/02 10:47:31;;;;;;;11.80;3.47;;;;;;;;;;7389551;19;20014;-72
2022/03/02 10:50:02;;;;;;;6.43;3.10;;;;;;;;;;7388673;19;20006;-72
2022/03/02 10:52:29;;;;;;;8.80;3.40;;;;;;;;;;7389583;19;20435;-69
2022/03/02 10:55:03;;;;;;;6.80;3.17;;;;;;;;;;7390153;19;20017;-71
2022/03/02 10:57:33;;;;;;;4.70;2.88;;;;;;;;;;7389547;19;20018;-71
2022/03/02 11:00:13;;;;;;;4.80;3.30;;;;;;;;;;7389469;19;20021;-70
2022/03/02 11:02:44;;;;;;;6.00;3.38;;;;;;;;;;7390628;19;19991;-69
2022/03/02 11:05:12;;;;;;;5.85;3.83;;;;;;;;;;7389288;19;20018;-70
2022/03/02 11:07:38;;;;;;;6.20;3.40;;;;;;;;;;7390616;19;20457;-71
2022/03/02 11:10:06;;;;;;;6.35;3.20;;;;;;;;;;7390307;19;20021;-70
2022/03/02 11:12:32;;;;;;;9.77;3.35;;;;;;;;;;7391823;19;20705;-71
2022/03/02 11:15:03;;;;;;;5.85;3.33;;;;;;;;;;7390602;19;20440;-72
2022/03/02 11:17:29;;;;;;;5.70;3.45;;;;;;;;;;7391863;19;20497;-70
2022/03/02 11:19:56;;;;;;;6.03;3.60;;;;;;;;;;7388129;19;20026;-71
2022/03/02 11:22:24;;;;;;;6.78;3.45;;;;;;;;;;7385775;19;20011;-71
2022/03/02 11:24:55;;;;;;;5.25;3.65;;;;;;;;;;7385348;19;20695;-71
2022/03/02 11:27:35;;;;;;;6.13;3.53;;;;;;;;;;7385802;19;20056;-73
2022/03/02 11:30:13;;;;;;;6.10;3.38;;;;;;;;;;7377390;19;20015;-71
2022/03/02 11:32:41;;;;;;;7.25;3.70;;;;;;;;;;7386477;19;20014;-70
2022/03/02 11:35:14;;;;;;;6.90;3.75;;;;;;;;;;7387585;19;20506;-73
2022/03/02 11:37:41;;;;;;;6.68;3.60;;;;;;;;;;7385229;19;20404;-71
2022/03/02 11:40:10;;;;;;;5.85;3.42;;;;;;;;;;7385293;19;20035;-73
2022/03/02 11:42:38;;;;;;;6.20;3.85;;;;;;;;;;7386320;19;20074;-72
2022/03/02 11:45:05;;;;;;;6.00;3.40;;;;;;;;;;7384647;19;20778;-73
2022/03/02 11:47:41;;;;;;;5.68;3.42;;;;;;;;;;7382697;19;20010;-70
2022/03/02 11:50:10;;;;;;;4.70;3.15;;;;;;;;;;7384108;19;20081;-72
2022/03/02 11:52:43;;;;;;;5.10;3.15;;;;;;;;;;7385366;19;20045;-72
2022/03/02 11:55:11;;;;;;;5.82;3.70;;;;;;;;;;7382850;19;20010;-72
2022/03/02 11:57:46;;;;;;;5.43;3.33;;;;;;;;;;7382747;19;20015;-73
2022/03/02 12:00:11;;;;;;;;;;;;;;;;;;7385550;19;20078;-69
2022/03/02 12:02:46;;;;;;;4.22;2.85;;;;;;;;;;7382493;19;19931;-75
2022/03/02 12:05:12;;;;;;;4.57;3.13;;;;;;;;;;7380700;19;20030;-72
2022/03/02 12:07:49;;;;;;;5.25;3.22;;;;;;;;;;7388790;19;20015;-72
2022/03/02 12:10:23;;;;;;;6.97;3.83;;;;;;;;;;7386224;19;20038;-73
2022/03/02 12:12:51;;;;;;;18.40;4.03;;;;;;;;;;7385790;19;20122;-76
2022/03/02 12:15:17;;;;;;;6.70;3.17;;;;;;;;;;7385914;19;20378;-71
2022/03/02 12:17:43;;;;;;;6.68;3.92;;;;;;;;;;7386174;19;20036;-72
2022/03/02 12:20:10;;;;;;;6.47;3.35;;;;;;;;;;7386274;19;20003;-71
2022/03/02 12:22:38;;;;;;;9.35;3.47;;;;;;;;;;7387810;19;20341;-73
2022/03/02 12:25:06;;;;;;;5.45;3.28;;;;;;;;;;7385174;19;20012;-72
2022/03/02 12:27:32;;;;;;;6.65;3.30;;;;;;;;;;7386069;19;20010;-72
2022/03/02 12:30:00;;;;;;;5.00;3.35;;;;;;;;;;7383817;19;20804;-69
2022/03/02 12:32:29;;;;;;;7.07;3.35;;;;;;;;;;7386021;19;20011;-72
2022/03/02 12:34:54;;;;;;;10.35;4.10;;;;;;;;;;7384112;19;20524;-72
2022/03/02 12:37:21;;;;;;;9.23;3.60;;;;;;;;;;7387352;19;20109;-73
2022/03/02 12:39:47;;;;;;;7.43;3.53;;;;;;;;;;7388495;19;20034;-71
2022/03/02 12:42:13;;;;;;;4.82;3.35;;;;;;;;;;7382940;19;20014;-71
2022/03/02 12:44:44;;;;;;;4.43;3.35;;;;;;;;;;7384911;19;20003;-73
2022/03/02 12:47:12;;;;;;;8.48;3.58;;;;;;;;;;7385678;19;20081;-71
2022/03/02 12:49:41;;;;;;;9.30;3.75;;;;;;;;;;7384824;19;20066;-71
2022/03/02 12:52:08;;;;;;;11.05;3.95;;;;;;;;;;7385400;19;20011;-73
2022/03/02 12:54:37;;;;;;;4.80;3.70;;;;;;;;;;7387025;19;20475;-71
2022/03/02 12:57:06;;;;;;;5.72;3.30;;;;;;;;;;7386615;19;20808;-73
2022/03/02 12:59:31;;;;;;;6.88;3.67;;;;;;;;;;7382093;19;20512;-72
2022/03/02 13:01:59;;;;;;;5.70;3.70;;;;;;;;;;7387042;19;20480;-74
2022/03/02 13:04:32;;;;;;;8.80;4.28;;;;;;;;;;7385118;19;20130;-71
2022/03/02 13:07:09;;;;;;;5.47;3.40;;;;;;;;;;7381199;19;20038;-72
2022/03/02 13:09:38;;;;;;;7.55;3.90;;;;;;;;;;7376546;19;20014;-75
2022/03/02 13:12:30;;;;;;;6.95;3.67;;;;;;;;;;7384770;19;20007;-73
2022/03/02 13:14:56;;;;;;;6.78;3.97;;;;;;;;;;7380241;19;20013;-73
2022/03/02 13:17:22;;;;;;;7.72;4.10;;;;;;;;;;7386137;19;20165;-76
2022/03/02 13:19:51;;;;;;;7.72;4.07;;;;;;;;;;7383507;19;20015;-71
2022/03/02 13:22:28;;;;;;;7.00;4.35;;;;;;;;;;7383892;19;20114;-71
2022/03/02 13:24:55;;;;;;;6.65;3.70;;;;;;;;;;7382471;19;20026;-70
2022/03/02 13:27:24;;;;;;;5.07;3.53;;;;;;;;;;7380917;19;20035;-70
2022/03/02 13:30:04;;;;;;;6.22;3.72;;;;;;;;;;7385104;19;20006;-70
2022/03/02 13:33:00;;;;;;;8.65;4.50;;;;;;;;;;7383631;19;20011;-71
2022/03/02 13:35:30;;;;;;;8.50;3.47;;;;;;;;;;7384258;19;20025;-69
2022/03/02 13:38:11;;;;;;;7.70;4.20;;;;;;;;;;7384663;19;20007;-69
2022/03/02 13:40:42;;;;;;;6.75;3.80;;;;;;;;;;7379985;19;20169;-71
2022/03/02 13:43:10;;;;;;;5.28;3.50;;;;;;;;;;7384420;19;20113;-69
2022/03/02 13:45:38;;;;;;;6.40;3.40;;;;;;;;;;7383205;19;20014;-70
2022/03/02 13:48:16;;;;;;;6.00;3.60;;;;;;;;;;7384537;19;20007;-69
2022/03/02 13:51:00;;;;;;;7.13;4.25;;;;;;;;;;7384544;19;20028;-69
2022/03/02 13:53:34;;;;;;;7.40;4.00;;;;;;;;;;7384433;19;20010;-70
2022/03/02 13:56:30;;;;;;;7.07;4.43;;;;;;;;;;7382932;19;20006;-72
2022/03/02 13:58:59;;;;;;;9.00;4.20;;;;;;;;;;7385060;19;20086;-69
2022/03/02 14:01:28;;;;;;;6.68;4.28;;;;;;;;;;7380672;19;22167;-69
2022/03/02 14:04:12;;;;;;;6.60;3.78;;;;;;;;;;7382818;19;20010;-73
2022/03/02 14:06:39;;;;;;;6.18;3.88;;;;;;;;;;7385270;19;20018;-74
2022/03/02 14:09:07;;;;;;;16.65;8.32;;;;;;;;;;7388018;19;20023;-69
2022/03/02 14:11:49;;;;;;;13.93;5.82;;;;;;;;;;7391023;19;20042;-69
2022/03/02 14:14:19;;;;;;;6.75;4.20;;;;;;;;;;7394532;19;20019;-69
2022/03/02 14:16:53;;;;;;;6.82;4.03;;;;;;;;;;7388649;19;20015;-69
2022/03/02 14:19:18;;;;;;;6.05;3.70;;;;;;;;;;7391249;19;20424;-69
2022/03/02 14:22:23;;;;;;;5.20;3.85;;;;;;;;;;7390381;19;20071;-73
2022/03/02 14:24:50;;;;;;;7.63;3.88;;;;;;;;;;7384292;19;20014;-69
2022/03/02 14:27:23;;;;;;;7.50;3.83;;;;;;;;;;7390125;19;20018;-69
2022/03/02 14:29:58;;;;;;;6.40;3.88;;;;;;;;;;7387263;19;20369;-69
2022/03/02 14:32:40;;;;;;;9.05;3.60;;;;;;;;;;7387673;19;20757;-72
2022/03/02 14:35:11;;;;;;;6.28;3.92;;;;;;;;;;7387241;19;21367;-71
2022/03/02 14:37:43;;;;;;;8.60;3.65;;;;;;;;;;7387065;19;20022;-70
2022/03/02 14:40:17;;;;;;;8.52;3.55;;;;;;;;;;7382152;19;20039;-70
2022/03/02 14:42:52;;;;;;;4.95;3.25;;;;;;;;;;7386797;19;20039;-74
2022/03/02 14:45:30;;;;;;;7.20;3.92;;;;;;;;;;7383560;19;20033;-71
2022/03/02 14:47:58;;;;;;;6.82;3.50;;;;;;;;;;7388084;19;20041;-69
2022/03/02 14:50:48;;;;;;;17.95;4.70;;;;;;;;;;7384996;19;20005;-70